Time,TemperatureF,DewpointF,PressureIn,WindDirection,WindDirectionDegrees,WindSpeedMPH,WindSpeedGustMPH,Humidity,HourlyPrecipIn,Conditions,Clouds,dailyrainin,SoftwareType,DateUTC
2013-08-05 07:30:00,65.2,40.3,29.70,West,269,0.0,0.0,40,0.00,,SKC,0.00,VWS V12.07,2013-08-05 13:30:00,
2013-08-05 08:00:00,67.3,39.5,29.72,West,269,0.0,0.0,36,0.00,,SKC,0.00,VWS V12.07,2013-08-05 14:00:00,
2013-08-05 08:29:00,71.6,40.2,29.71,West,269,0.0,0.0,32,0.00,,SKC,0.00,VWS V12.07,2013-08-05 14:29:00,
2013-08-05 09:00:00,74.2,38.1,29.69,West,269,0.0,0.0,27,0.00,,SKC,0.00,VWS V12.07,2013-08-05 15:00:00,
2013-08-05 09:29:00,77.6,39.0,29.68,SE,133,0.0,0.0,25,0.00,,SKC,0.00,VWS V12.07,2013-08-05 15:29:00,
2013-08-05 10:00:00,79.9,38.8,29.67,SE,130,0.0,0.0,23,0.00,,SKC,0.00,VWS V12.07,2013-08-05 16:00:00,
2013-08-05 10:30:00,77.4,40.8,29.67,ESE,122,0.0,0.0,27,0.00,,SKC,0.00,VWS V12.07,2013-08-05 16:30:00,
2013-08-05 11:00:00,82.4,37.3,29.66,East,84,0.0,0.0,20,0.00,,SKC,0.00,VWS V12.07,2013-08-05 17:00:00,
2013-08-05 11:30:00,83.4,39.4,29.65,East,86,0.0,0.0,21,0.00,,SKC,0.00,VWS V12.07,2013-08-05 17:30:00,
2013-08-05 12:00:00,86.7,35.2,29.67,NNW,340,0.0,0.0,16,0.00,,SKC,0.00,VWS V12.07,2013-08-05 18:00:00,
2013-08-05 12:30:00,88.2,34.8,29.64,NNE,19,0.0,0.0,15,0.00,,SKC,0.00,VWS V12.07,2013-08-05 18:30:00,
2013-08-05 13:00:00,88.6,36.7,29.64,NW,314,0.0,0.0,16,0.00,,SKC,0.00,VWS V12.07,2013-08-05 19:00:00,
2013-08-05 13:30:00,88.6,31.5,29.60,North,355,0.0,0.0,13,0.00,,SKC,0.00,VWS V12.07,2013-08-05 19:30:00,
2013-08-05 14:00:00,89.7,32.4,29.60,NE,51,0.0,0.0,13,0.00,,SKC,0.00,VWS V12.07,2013-08-05 20:00:00,
2013-08-05 14:30:00,89.7,32.4,29.59,NNE,15,0.0,0.0,13,0.00,,SKC,0.00,VWS V12.07,2013-08-05 20:30:00,
2013-08-05 15:00:00,88.2,29.2,29.58,NE,34,0.0,0.0,12,0.00,,SKC,0.00,VWS V12.07,2013-08-05 21:00:00,
2013-08-05 15:30:00,86.3,39.2,29.60,East,92,0.0,0.0,19,0.00,,SKC,0.00,VWS V12.07,2013-08-05 21:30:00,
2013-08-05 16:00:00,84.5,37.8,29.62,NE,48,0.0,0.0,19,0.00,,SKC,0.00,VWS V12.07,2013-08-05 22:00:00,
2013-08-05 17:00:00,86.7,39.6,29.59,SSW,211,0.0,0.0,19,0.00,,SKC,0.00,VWS V12.07,2013-08-05 23:00:00,
2013-08-05 17:30:00,88.0,37.8,29.57,ENE,73,0.0,0.0,17,0.00,,SKC,0.00,VWS V12.07,2013-08-05 23:30:00,
2013-08-05 18:00:00,89.3,33.9,29.56,ENE,76,0.0,0.0,14,0.00,,SKC,0.00,VWS V12.07,2013-08-06 00:00:00,
2013-08-05 18:30:00,89.3,33.9,29.55,East,95,0.0,0.0,14,0.00,,SKC,0.00,VWS V12.07,2013-08-06 00:30:00,
2013-08-05 19:00:00,87.2,35.6,29.55,East,95,0.0,0.0,16,0.00,,SKC,0.00,VWS V12.07,2013-08-06 01:00:00,
2013-08-05 19:30:00,83.8,39.7,29.59,SE,140,0.0,0.0,21,0.00,,SKC,0.00,VWS V12.07,2013-08-06 01:30:00,
2013-08-05 20:00:00,77.2,37.7,29.61,North,0,0.0,0.0,24,0.00,,SKC,0.00,VWS V12.07,2013-08-06 02:00:00,
2013-08-05 20:30:00,77.2,35.5,29.61,SE,133,0.0,0.0,22,0.00,,SKC,0.00,VWS V12.07,2013-08-06 02:30:00,
2013-08-05 21:00:00,75.4,34.0,29.59,SE,146,0.0,0.0,22,0.00,,SKC,0.00,VWS V12.07,2013-08-06 03:00:00,
2013-08-05 21:30:00,75.8,31.9,29.59,WSW,241,0.0,0.0,20,0.00,,SKC,0.00,VWS V12.07,2013-08-06 03:30:00,
2013-08-05 22:00:00,76.1,32.2,29.59,WSW,239,0.0,0.0,20,0.00,,SKC,0.00,VWS V12.07,2013-08-06 04:00:00,
2013-08-05 22:30:00,75.8,31.9,29.59,WSW,239,0.0,0.0,20,0.00,,SKC,0.00,VWS V12.07,2013-08-06 04:30:00,
2013-08-05 23:00:00,75.4,31.6,29.57,SW,227,0.0,0.0,20,0.00,,SKC,0.00,VWS V12.07,2013-08-06 05:00:00,
2013-08-05 23:30:00,74.0,32.8,29.57,SW,227,0.0,0.0,22,0.00,,SKC,0.00,VWS V12.07,2013-08-06 05:30:00,